Terminal Aerodrome Forecast
Issued by NWS

Current Version | Previous Version | Graphics & Text | Print | Product List | Glossary On
Versions: 1 2 3 4 5 6 7 8 9 10 11 12 13 14 15 16 17 18
956
FTUS41 KPBZ 160539
TAFMGW
TAF
KMGW 160539Z 1606/1706 27010G15KT P6SM OVC040
     FM161000 26009KT P6SM BKN045
     FM161800 24010G19KT P6SM SCT200
     FM170000 23007KT P6SM FEW250=

USA.gov is the U.S. government's official web portal to all federal, state and local government web resources and services.